createdAt,value
2018-12-04T00:09:47.781Z,148.40
2018-12-04T00:19:34.394Z,162.87
2018-12-04T00:26:29.303Z,152.37
2018-12-04T00:28:58.330Z,159.87
2018-12-04T00:31:27.426Z,196.77
2018-12-04T00:33:56.481Z,218.07
2018-12-04T00:36:25.497Z,170.73
2018-12-04T00:38:54.550Z,220.67
2018-12-04T00:41:23.559Z,218.73
2018-12-04T00:43:52.646Z,224.97
2018-12-04T00:46:21.782Z,199.40
2018-12-04T00:48:50.790Z,234.20
2018-12-04T00:51:19.779Z,240.77
2018-12-04T00:53:48.801Z,182.10
2018-12-04T00:56:17.844Z,190.60
2018-12-04T00:58:46.984Z,183.00
2018-12-04T01:01:16.002Z,184.90
2018-12-04T01:03:45.056Z,189.13
2018-12-04T01:06:14.055Z,184.20
2018-12-04T01:08:43.179Z,163.33
2018-12-04T01:11:12.281Z,161.40
2018-12-04T01:13:41.331Z,158.93
2018-12-04T01:16:10.376Z,161.97
2018-12-04T01:18:39.433Z,153.10
2018-12-04T01:21:08.461Z,194.80
2018-12-04T01:23:37.498Z,195.57
2018-12-04T01:26:06.529Z,176.47
2018-12-04T01:28:35.537Z,197.33
2018-12-04T01:31:04.658Z,191.57
2018-12-04T01:33:33.705Z,173.27
2018-12-04T01:36:02.881Z,168.20
2018-12-04T01:38:31.957Z,148.60
2018-12-04T01:41:00.953Z,168.00
2018-12-04T01:43:30.111Z,158.23
2018-12-04T01:45:59.194Z,147.00
2018-12-04T01:48:28.247Z,196.30
2018-12-04T01:50:57.461Z,204.73
2018-12-04T01:53:26.728Z,190.90
2018-12-04T01:55:55.844Z,163.30
2018-12-04T01:58:25.157Z,166.17
2018-12-04T02:00:54.312Z,154.90
2018-12-04T02:03:23.307Z,158.87
2018-12-04T02:05:52.445Z,163.10
2018-12-04T02:08:21.493Z,168.30
2018-12-04T02:10:50.510Z,164.50
2018-12-04T02:13:19.557Z,144.13
2018-12-04T02:15:48.624Z,159.03
2018-12-04T02:18:17.760Z,147.93
2018-12-04T02:20:46.774Z,160.77
2018-12-04T02:23:15.797Z,171.37
2018-12-04T02:25:44.977Z,161.10
2018-12-04T02:28:14.083Z,150.70
2018-12-04T02:30:43.135Z,161.13
2018-12-04T02:33:12.138Z,153.73
2018-12-04T02:35:41.161Z,137.73
2018-12-04T02:38:10.326Z,147.90
2018-12-04T02:40:39.505Z,166.90
2018-12-04T02:43:08.554Z,133.07
2018-12-04T02:45:37.694Z,134.03
2018-12-04T02:48:06.830Z,160.63
2018-12-04T02:50:35.904Z,165.30
2018-12-04T02:53:05.003Z,154.50
2018-12-04T02:55:33.991Z,160.13
2018-12-04T02:58:03.074Z,185.90
2018-12-04T03:00:32.091Z,165.70
2018-12-04T03:03:01.194Z,163.77
2018-12-04T03:05:30.265Z,170.07
2018-12-04T03:07:59.315Z,157.67
2018-12-04T03:10:28.369Z,187.77
2018-12-04T03:12:57.433Z,170.47
2018-12-04T03:15:26.579Z,203.40
2018-12-04T03:17:55.580Z,206.07
2018-12-04T03:20:24.831Z,232.53
2018-12-04T03:22:53.933Z,186.43
2018-12-04T03:25:22.960Z,208.20
2018-12-04T03:27:51.972Z,190.87
2018-12-04T03:30:23.093Z,197.73
2018-12-04T03:32:52.158Z,191.37
2018-12-04T03:35:21.242Z,205.60
2018-12-04T03:37:50.381Z,190.40
2018-12-04T03:40:19.431Z,175.23
2018-12-04T03:42:48.438Z,171.80
2018-12-04T03:45:17.485Z,167.37
2018-12-04T03:47:46.473Z,184.43
2018-12-04T03:50:15.589Z,184.70
2018-12-04T03:52:44.717Z,204.33
2018-12-04T03:55:13.815Z,194.63
2018-12-04T03:57:42.834Z,184.83
2018-12-04T04:00:11.860Z,196.30
2018-12-04T04:02:41.177Z,205.63
2018-12-04T04:05:10.268Z,175.77
2018-12-04T04:07:39.339Z,187.47
2018-12-04T04:10:08.636Z,182.50
2018-12-04T04:12:37.676Z,186.63
2018-12-04T04:15:06.930Z,175.83
2018-12-04T04:17:36.075Z,188.37
2018-12-04T04:20:05.621Z,178.53
2018-12-04T04:22:34.677Z,190.30
2018-12-04T04:25:03.700Z,191.10
2018-12-04T04:27:32.786Z,196.90
2018-12-04T04:30:01.858Z,195.60
2018-12-04T04:32:31.094Z,173.10
2018-12-04T04:35:02.131Z,170.97
2018-12-04T04:37:31.283Z,185.70
2018-12-04T04:40:00.469Z,217.10
2018-12-04T04:42:29.540Z,276.40
2018-12-04T04:44:58.605Z,388.67
2018-12-04T04:47:27.720Z,344.67
2018-12-04T04:49:56.779Z,330.70
2018-12-04T04:52:25.851Z,265.07
2018-12-04T04:54:54.889Z,314.00
2018-12-04T04:57:23.899Z,296.70
2018-12-04T04:59:52.930Z,266.00
2018-12-04T05:02:21.941Z,285.03
2018-12-04T05:04:50.978Z,303.23
2018-12-04T05:07:20.283Z,292.13
2018-12-04T05:09:50.495Z,281.27
2018-12-04T05:12:19.590Z,281.43
2018-12-04T05:14:48.642Z,279.33
2018-12-04T05:17:17.722Z,300.83
2018-12-04T05:19:46.754Z,332.07
2018-12-04T05:22:15.862Z,241.37
2018-12-04T05:24:44.889Z,286.87
2018-12-04T05:27:13.898Z,263.13
2018-12-04T05:29:43.189Z,285.80
2018-12-04T05:32:12.214Z,238.97
2018-12-04T05:34:41.217Z,264.47
2018-12-04T05:37:10.630Z,257.07
2018-12-04T05:39:39.686Z,231.77
2018-12-04T05:42:08.681Z,295.07
2018-12-04T05:44:37.910Z,310.77
2018-12-04T05:47:06.931Z,343.50
2018-12-04T05:49:36.015Z,326.57
2018-12-04T05:52:05.086Z,351.50
2018-12-04T05:54:34.157Z,320.97
2018-12-04T05:57:03.166Z,310.80
2018-12-04T05:59:32.230Z,331.90
2018-12-04T06:02:01.506Z,303.40
2018-12-04T06:04:30.597Z,364.23
2018-12-04T06:07:00.758Z,300.87
2018-12-04T06:09:29.834Z,299.03
2018-12-04T06:11:58.879Z,371.40
2018-12-04T06:14:27.951Z,285.73
2018-12-04T06:16:56.942Z,288.47
2018-12-04T06:19:26.116Z,251.37
2018-12-04T06:21:55.149Z,303.47
2018-12-04T06:24:24.191Z,297.50
2018-12-04T06:26:53.349Z,335.30
2018-12-04T06:29:22.390Z,315.70
2018-12-04T06:31:51.633Z,291.27
2018-12-04T06:34:20.711Z,301.10
2018-12-04T06:36:49.849Z,275.47
2018-12-04T06:39:18.927Z,315.13
2018-12-04T06:41:47.975Z,413.20
2018-12-04T06:44:17.145Z,276.40
2018-12-04T06:46:46.166Z,304.57
2018-12-04T06:49:15.185Z,329.83
2018-12-04T06:51:44.395Z,381.50
2018-12-04T06:54:13.454Z,292.23
2018-12-04T06:56:42.522Z,340.03
2018-12-04T06:59:11.620Z,319.80
2018-12-04T07:01:40.742Z,353.20
2018-12-04T07:04:09.798Z,277.40
2018-12-04T07:06:38.954Z,333.90
2018-12-04T07:09:08.437Z,324.00
2018-12-04T07:11:37.609Z,308.80
2018-12-04T07:14:06.638Z,285.87
2018-12-04T07:16:35.761Z,282.30
2018-12-04T07:19:04.793Z,272.93
2018-12-04T07:21:34.114Z,327.10
2018-12-04T07:24:03.185Z,286.83
2018-12-04T07:26:32.266Z,260.97
2018-12-04T07:29:01.345Z,302.23
2018-12-04T07:31:30.377Z,313.43
2018-12-04T07:33:59.500Z,327.73
2018-12-04T07:36:28.517Z,305.03
2018-12-04T07:38:57.558Z,278.73
2018-12-04T07:41:26.563Z,297.47
2018-12-04T07:43:55.694Z,286.67
2018-12-04T07:46:24.709Z,269.10
2018-12-04T07:48:53.717Z,299.07
2018-12-04T07:51:22.780Z,273.90
2018-12-04T07:53:51.814Z,286.43
2018-12-04T07:56:20.944Z,235.67
2018-12-04T07:58:50.118Z,257.30
2018-12-04T08:01:19.226Z,232.93
2018-12-04T08:03:48.275Z,225.13
2018-12-04T08:06:17.313Z,251.30
2018-12-04T08:08:46.395Z,232.73
2018-12-04T08:11:15.501Z,240.30
2018-12-04T08:13:44.643Z,228.37
2018-12-04T08:16:13.625Z,210.23
2018-12-04T08:18:42.641Z,223.23
2018-12-04T08:21:11.740Z,229.60
2018-12-04T08:23:40.863Z,223.60
2018-12-04T08:26:09.926Z,257.27
2018-12-04T08:28:38.974Z,257.53
2018-12-04T08:31:07.990Z,233.20
2018-12-04T08:33:37.026Z,215.97
2018-12-04T08:36:06.172Z,222.17
2018-12-04T08:38:35.241Z,217.23
2018-12-04T08:41:04.323Z,168.63
2018-12-04T08:43:33.449Z,183.53
2018-12-04T08:46:02.435Z,176.73
2018-12-04T08:48:31.463Z,166.57
2018-12-04T08:51:00.494Z,169.60
2018-12-04T08:53:29.515Z,173.53
2018-12-04T08:55:58.610Z,194.40
2018-12-04T08:58:27.761Z,186.73
2018-12-04T09:00:56.866Z,191.57
2018-12-04T09:03:25.929Z,182.77
2018-12-04T09:05:55.029Z,197.63
2018-12-04T09:08:24.050Z,205.77
2018-12-04T09:10:53.094Z,181.00
2018-12-04T09:13:22.267Z,215.83
2018-12-04T09:15:51.421Z,208.37
2018-12-04T09:18:20.551Z,222.50
2018-12-04T09:20:49.831Z,227.40
2018-12-04T09:23:19.003Z,200.43
2018-12-04T09:25:48.139Z,220.90
2018-12-04T09:28:17.402Z,224.80
2018-12-04T09:30:48.456Z,188.30
2018-12-04T09:33:17.497Z,219.73
2018-12-04T09:35:46.586Z,224.83
2018-12-04T09:38:16.798Z,257.43
2018-12-04T09:40:46.954Z,231.47
2018-12-04T09:43:15.989Z,261.70
2018-12-04T09:45:45.031Z,275.27
2018-12-04T09:48:14.302Z,302.17
2018-12-04T09:50:43.377Z,301.53
2018-12-04T09:53:12.457Z,277.10
2018-12-04T09:55:41.762Z,304.60
2018-12-04T09:58:10.847Z,256.47
2018-12-04T10:00:39.922Z,227.87
2018-12-04T10:03:08.957Z,269.97
2018-12-04T10:05:38.042Z,248.77
2018-12-04T10:08:07.154Z,273.10
2018-12-04T10:10:36.339Z,265.60
2018-12-04T10:13:05.467Z,262.70
2018-12-04T10:15:34.652Z,251.73
2018-12-04T10:18:04.880Z,213.30
2018-12-04T10:20:33.983Z,232.63
2018-12-04T10:23:02.994Z,231.57
2018-12-04T10:25:32.034Z,227.57
2018-12-04T10:28:01.190Z,232.70
2018-12-04T10:30:30.954Z,231.20
2018-12-04T10:33:00.025Z,232.20
2018-12-04T10:35:29.063Z,269.30
2018-12-04T10:37:58.072Z,232.97
2018-12-04T10:40:28.154Z,213.80
2018-12-04T10:42:57.226Z,240.30
2018-12-04T10:45:26.377Z,214.83
2018-12-04T10:47:55.455Z,235.03
2018-12-04T10:50:24.609Z,271.53
2018-12-04T10:52:53.636Z,249.30
2018-12-04T10:55:22.724Z,272.03
2018-12-04T10:57:51.790Z,302.83
2018-12-04T11:00:26.052Z,343.40
2018-12-04T11:02:59.331Z,324.00
2018-12-04T11:05:28.398Z,304.83
2018-12-04T11:07:57.481Z,258.37
2018-12-04T11:10:26.607Z,330.47
2018-12-04T11:12:55.701Z,268.77
2018-12-04T11:15:24.717Z,259.00
2018-12-04T11:17:53.916Z,258.17
2018-12-04T11:20:22.992Z,257.10
2018-12-04T11:22:52.209Z,246.03
2018-12-04T11:25:21.243Z,256.13
2018-12-04T11:27:50.372Z,278.10
2018-12-04T11:30:19.492Z,247.77
2018-12-04T11:32:48.590Z,234.33
2018-12-04T11:35:17.648Z,275.47
2018-12-04T11:37:46.769Z,241.70
2018-12-04T11:40:15.868Z,253.40
2018-12-04T11:42:45.137Z,286.63
2018-12-04T11:45:14.132Z,235.47
2018-12-04T11:47:43.333Z,291.33
2018-12-04T11:50:12.509Z,250.40
2018-12-04T11:52:41.646Z,265.47
2018-12-04T11:55:10.671Z,270.47
2018-12-04T11:57:39.770Z,220.10
2018-12-04T12:00:16.148Z,224.03
2018-12-04T12:02:45.159Z,204.67
2018-12-04T12:05:14.370Z,196.33
2018-12-04T12:07:45.474Z,227.13
2018-12-04T12:10:14.530Z,234.47
2018-12-04T12:12:43.606Z,265.87
2018-12-04T12:15:17.842Z,265.80
2018-12-04T12:17:43.891Z,269.77
2018-12-04T12:20:13.000Z,261.17
2018-12-04T12:22:42.121Z,219.80
2018-12-04T12:25:11.136Z,273.17
2018-12-04T12:27:40.230Z,296.97
2018-12-04T12:30:10.512Z,265.90
2018-12-04T12:32:39.691Z,268.63
2018-12-04T12:35:08.797Z,261.90
2018-12-04T12:37:37.867Z,190.80
2018-12-04T12:40:08.586Z,197.20
2018-12-04T12:42:37.678Z,196.53
2018-12-04T12:45:09.221Z,213.80
2018-12-04T12:47:38.383Z,177.30
2018-12-04T12:50:08.882Z,219.27
2018-12-04T12:52:37.980Z,202.97
2018-12-04T12:55:07.196Z,204.20
2018-12-04T12:57:36.281Z,222.73
2018-12-04T13:00:07.240Z,226.10
2018-12-04T13:02:36.484Z,234.10
2018-12-04T13:05:05.746Z,221.60
2018-12-04T13:07:34.763Z,222.87
2018-12-04T13:10:03.927Z,176.50
2018-12-04T13:12:32.979Z,181.20
2018-12-04T13:15:02.003Z,186.20
2018-12-04T13:17:31.447Z,178.20
2018-12-04T13:20:00.499Z,178.23
2018-12-04T13:22:29.530Z,182.93
2018-12-04T13:24:58.668Z,160.33
2018-12-04T13:27:27.685Z,161.73
2018-12-04T13:29:56.795Z,164.77
2018-12-04T13:32:25.906Z,144.00
2018-12-04T13:34:54.969Z,159.30
2018-12-04T13:37:24.033Z,128.87
2018-12-04T13:39:53.078Z,129.83
2018-12-04T13:42:22.149Z,127.70
2018-12-04T13:44:51.250Z,138.50
2018-12-04T13:47:20.541Z,138.40
2018-12-04T13:49:49.651Z,117.63
2018-12-04T13:52:18.750Z,120.10
2018-12-04T13:54:48.100Z,130.73
2018-12-04T13:57:17.287Z,114.20
2018-12-04T13:59:46.322Z,100.53
2018-12-04T14:02:15.423Z,80.13
2018-12-04T14:04:44.609Z,74.00
2018-12-04T14:07:13.712Z,82.13
2018-12-04T14:09:42.902Z,93.27
2018-12-04T14:12:11.963Z,83.73
2018-12-04T14:14:41.046Z,85.97
2018-12-04T14:17:10.261Z,68.47
2018-12-04T14:19:39.520Z,63.13
2018-12-04T14:22:08.568Z,61.40
2018-12-04T14:24:37.650Z,55.50
2018-12-04T14:27:06.845Z,53.97
2018-12-04T14:29:36.257Z,39.40
2018-12-04T14:32:05.460Z,33.90
2018-12-04T14:34:35.513Z,35.87
2018-12-04T14:37:04.611Z,30.00
2018-12-04T14:39:33.863Z,33.13
2018-12-04T14:42:02.989Z,27.80
2018-12-04T14:44:32.299Z,28.03
2018-12-04T14:47:01.653Z,26.43
2018-12-04T14:49:30.689Z,33.27
2018-12-04T14:51:59.862Z,23.00
2018-12-04T14:54:28.897Z,21.53
2018-12-04T14:56:58.040Z,23.13
2018-12-04T14:59:27.166Z,21.87
2018-12-04T15:01:56.425Z,21.53
2018-12-04T15:04:25.628Z,24.30
2018-12-04T15:06:55.879Z,16.40
2018-12-04T15:09:25.568Z,19.00
2018-12-04T15:11:54.671Z,21.10
2018-12-04T15:14:23.816Z,19.67
2018-12-04T15:16:55.078Z,21.87
2018-12-04T15:19:24.114Z,20.07
2018-12-04T15:21:53.411Z,18.70
2018-12-04T15:24:22.653Z,21.47
2018-12-04T15:26:51.810Z,22.50
2018-12-04T15:29:21.095Z,25.40
2018-12-04T15:31:50.273Z,22.77
2018-12-04T15:34:19.492Z,23.57
2018-12-04T15:36:48.700Z,19.87
2018-12-04T15:39:17.794Z,20.40
2018-12-04T15:41:46.904Z,24.87
2018-12-04T15:44:17.199Z,22.20
2018-12-04T15:46:46.316Z,20.10
2018-12-04T15:49:15.461Z,23.83
2018-12-04T15:51:44.545Z,30.10
2018-12-04T15:54:13.552Z,31.63
2018-12-04T15:56:42.809Z,29.33
2018-12-04T15:59:12.080Z,25.80
2018-12-04T16:01:41.145Z,30.80
2018-12-04T16:04:10.168Z,25.77
2018-12-04T16:06:39.214Z,19.60
2018-12-04T16:09:08.426Z,25.33
2018-12-04T16:11:37.562Z,23.00
2018-12-04T16:14:06.658Z,19.47
2018-12-04T16:16:35.646Z,28.10
2018-12-04T16:19:04.670Z,27.83
2018-12-04T16:21:33.781Z,26.23
2018-12-04T16:24:02.872Z,28.00
2018-12-04T16:26:32.003Z,25.63
2018-12-04T16:29:01.315Z,20.53
2018-12-04T16:31:30.297Z,29.43
2018-12-04T16:33:59.313Z,23.80
2018-12-04T16:36:28.457Z,24.03
2018-12-04T16:38:57.508Z,20.53
2018-12-04T16:41:26.502Z,20.47
2018-12-04T16:43:55.606Z,23.43
2018-12-04T16:46:24.742Z,19.30
2018-12-04T16:48:53.760Z,18.57
2018-12-04T16:51:22.959Z,22.43
2018-12-04T16:53:51.993Z,22.10
2018-12-04T16:56:21.051Z,20.67
2018-12-04T16:58:50.472Z,25.60
2018-12-04T17:01:19.470Z,26.03
2018-12-04T17:03:48.534Z,31.27
2018-12-04T17:06:17.594Z,28.93
2018-12-04T17:08:46.771Z,35.37
2018-12-04T17:11:15.773Z,36.17
2018-12-04T17:13:44.975Z,40.57
2018-12-04T17:16:14.099Z,36.80
2018-12-04T17:18:43.174Z,43.30
2018-12-04T17:21:12.215Z,46.60
2018-12-04T17:23:41.342Z,38.83
2018-12-04T17:26:10.474Z,28.50
2018-12-04T17:28:39.606Z,33.60
2018-12-04T17:31:08.615Z,34.00
2018-12-04T17:33:37.635Z,26.47
2018-12-04T17:36:06.681Z,28.97
2018-12-04T17:38:35.711Z,33.57
2018-12-04T17:41:04.963Z,32.97
2018-12-04T17:43:34.071Z,27.93
2018-12-04T17:46:04.094Z,31.57
2018-12-04T17:48:34.386Z,31.13
2018-12-04T17:51:03.532Z,28.37
2018-12-04T17:53:32.549Z,31.43
2018-12-04T17:56:03.637Z,33.00
2018-12-04T17:58:32.777Z,28.20
2018-12-04T18:01:01.899Z,27.90
2018-12-04T18:03:32.946Z,32.10
2018-12-04T18:06:02.077Z,25.40
2018-12-04T18:08:31.241Z,24.57
2018-12-04T18:11:02.362Z,26.33
2018-12-04T18:13:31.753Z,28.83
2018-12-04T18:16:02.901Z,28.03
2018-12-04T18:18:32.143Z,31.70
2018-12-04T18:21:01.461Z,29.10
2018-12-04T18:23:30.645Z,30.07
2018-12-04T18:25:59.893Z,31.70
2018-12-04T18:28:29.166Z,34.43
2018-12-04T18:30:58.266Z,23.63
2018-12-04T18:33:27.462Z,25.93
2018-12-04T18:35:56.582Z,29.60
2018-12-04T18:38:25.701Z,35.30
2018-12-04T18:40:54.845Z,31.40
2018-12-04T18:43:24.323Z,31.33
2018-12-04T18:45:53.329Z,26.43
2018-12-04T18:48:22.431Z,31.97
2018-12-04T18:50:51.644Z,34.13
2018-12-04T18:53:20.893Z,23.00
2018-12-04T18:55:49.937Z,34.67
2018-12-04T18:58:18.961Z,27.97
2018-12-04T19:00:48.023Z,25.63
2018-12-04T19:03:17.130Z,28.37
2018-12-04T19:05:46.201Z,26.53
2018-12-04T19:08:15.257Z,24.73
2018-12-04T19:10:44.330Z,27.53
2018-12-04T19:13:13.453Z,33.07
2018-12-04T19:15:42.570Z,27.23
2018-12-04T19:18:12.284Z,29.73
2018-12-04T19:20:41.378Z,26.53
2018-12-04T19:23:10.425Z,32.73
2018-12-04T19:25:39.722Z,33.77
2018-12-04T19:28:08.933Z,33.07
2018-12-04T19:30:38.146Z,36.87
2018-12-04T19:33:07.218Z,35.80
2018-12-04T19:35:36.396Z,38.37
2018-12-04T19:38:05.426Z,38.70
2018-12-04T19:40:34.871Z,46.17
2018-12-04T19:43:04.049Z,36.23
2018-12-04T19:45:33.240Z,43.70
2018-12-04T19:48:03.229Z,45.53
2018-12-04T19:50:32.668Z,43.33
2018-12-04T19:53:02.425Z,39.90
2018-12-04T19:55:31.592Z,40.17
2018-12-04T19:58:00.638Z,47.17
2018-12-04T20:00:29.902Z,43.20
2018-12-04T20:02:58.928Z,44.17
2018-12-04T20:05:28.074Z,47.20
2018-12-04T20:08:00.246Z,43.27
2018-12-04T20:10:29.306Z,34.47
2018-12-04T20:12:59.242Z,37.60
2018-12-04T20:21:24.581Z,35.43
2018-12-04T20:23:53.592Z,35.17
2018-12-04T20:26:23.778Z,36.87
2018-12-04T20:28:52.859Z,36.13
2018-12-04T20:31:21.891Z,31.90
2018-12-04T20:33:52.327Z,42.27
2018-12-04T20:36:22.410Z,29.53
2018-12-04T20:38:51.902Z,36.73
2018-12-04T20:41:20.986Z,34.43
2018-12-04T20:43:50.038Z,35.73
2018-12-04T20:46:19.082Z,31.33
2018-12-04T20:48:48.345Z,38.10
2018-12-04T20:51:17.447Z,46.17
2018-12-04T20:53:46.780Z,31.80
2018-12-04T20:56:15.830Z,42.70
2018-12-04T20:58:44.865Z,35.60
2018-12-04T21:01:13.958Z,37.33
2018-12-04T21:03:42.948Z,38.83
2018-12-04T21:06:12.201Z,35.67
2018-12-04T21:08:41.243Z,46.27
2018-12-04T21:11:10.258Z,35.00
2018-12-04T21:13:39.278Z,35.63
2018-12-04T21:16:08.357Z,34.67
2018-12-04T21:18:37.489Z,37.50
2018-12-04T21:21:06.499Z,36.70
2018-12-04T21:23:35.567Z,36.03
2018-12-04T21:26:04.762Z,37.43
2018-12-04T21:28:33.829Z,35.03
2018-12-04T21:31:08.001Z,30.00
2018-12-04T21:33:42.470Z,31.47
2018-12-04T21:36:16.753Z,43.20
2018-12-04T21:38:51.185Z,31.87
2018-12-04T21:42:27.302Z,33.40
2018-12-04T21:45:01.762Z,28.17
2018-12-04T21:47:36.362Z,40.77
2018-12-04T21:50:05.645Z,40.27
2018-12-04T21:52:34.756Z,34.27
2018-12-04T21:55:03.938Z,37.77
2018-12-04T21:57:33.011Z,41.27
2018-12-04T22:00:02.009Z,43.83
2018-12-04T22:02:33.114Z,50.63
2018-12-04T22:05:02.147Z,51.90
2018-12-04T22:07:31.301Z,45.17
2018-12-04T22:10:00.312Z,40.73
2018-12-04T22:12:29.409Z,36.73
2018-12-04T22:14:58.481Z,49.33
2018-12-04T22:17:27.485Z,44.07
2018-12-04T22:19:56.581Z,39.77
2018-12-04T22:22:25.666Z,38.50
2018-12-04T22:24:54.758Z,38.27
2018-12-04T22:27:23.782Z,47.53
2018-12-04T22:29:52.977Z,49.70
2018-12-04T22:32:22.026Z,50.87
2018-12-04T22:34:51.045Z,53.63
2018-12-04T22:37:20.150Z,56.20
2018-12-04T22:39:51.137Z,63.80
2018-12-04T22:42:20.179Z,59.93
2018-12-04T22:44:49.179Z,60.83
2018-12-04T22:47:18.216Z,63.27
2018-12-04T22:49:47.402Z,55.00
2018-12-04T22:52:16.499Z,46.53
2018-12-04T22:54:45.678Z,51.73
2018-12-04T22:57:14.706Z,44.67
2018-12-04T22:59:43.812Z,39.13
2018-12-04T23:02:12.914Z,43.20
2018-12-04T23:04:42.138Z,45.07
2018-12-04T23:07:11.151Z,46.17
2018-12-04T23:09:40.221Z,44.50
2018-12-04T23:12:09.479Z,48.67
2018-12-04T23:14:38.550Z,39.20
2018-12-04T23:17:07.608Z,36.70
2018-12-04T23:19:36.734Z,38.00
2018-12-04T23:22:05.874Z,37.30
2018-12-04T23:24:35.050Z,48.27
2018-12-04T23:27:04.239Z,39.27
2018-12-04T23:29:33.226Z,38.43
2018-12-04T23:32:02.281Z,38.63
2018-12-04T23:34:31.411Z,35.17
2018-12-04T23:37:00.496Z,44.93
2018-12-04T23:39:29.479Z,43.83
2018-12-04T23:41:58.672Z,39.30
2018-12-04T23:44:27.651Z,38.70
2018-12-04T23:46:56.818Z,35.77
2018-12-04T23:49:25.935Z,43.57
2018-12-04T23:51:55.049Z,38.83
2018-12-04T23:54:24.111Z,38.13
2018-12-04T23:56:53.127Z,36.23
2018-12-04T23:59:22.142Z,37.10
